createdAt,value
2023-04-12T00:00:39.474Z,100383.59
2023-04-12T00:03:11.833Z,100372.78
2023-04-12T00:05:48.287Z,100356.69
2023-04-12T00:08:19.507Z,100356.97
2023-04-12T00:10:50.765Z,100354.09
2023-04-12T00:13:22.576Z,100357.97
2023-04-12T00:15:53.963Z,100353.00
2023-04-12T00:18:26.748Z,100346.22
2023-04-12T00:20:58.231Z,100339.59
2023-04-12T00:23:29.579Z,100340.63
2023-04-12T00:26:00.854Z,100331.78
2023-04-12T00:28:32.375Z,100327.63
2023-04-12T00:31:04.384Z,100333.16
2023-04-12T00:33:38.028Z,100320.38
2023-04-12T00:36:09.720Z,100307.91
2023-04-12T00:38:41.391Z,100309.53
2023-04-12T00:41:12.666Z,100303.19
2023-04-12T00:43:44.226Z,100282.69
2023-04-12T00:46:15.567Z,100289.03
2023-04-12T00:48:49.478Z,100289.16
2023-04-12T00:51:23.913Z,100285.63
2023-04-12T00:53:57.119Z,100275.69
2023-04-12T00:56:30.022Z,100273.53
2023-04-12T00:59:01.697Z,100264.97
2023-04-12T01:01:33.491Z,100269.53
2023-04-12T01:04:06.090Z,100263.81
2023-04-12T01:06:44.173Z,100256.53
2023-04-12T01:09:31.635Z,100265.03
2023-04-12T01:12:23.529Z,100261.31
2023-04-12T01:15:12.780Z,100249.00
2023-04-12T01:18:07.126Z,100244.06
2023-04-12T01:20:49.815Z,100243.28
2023-04-12T01:23:42.196Z,100247.31
2023-04-12T01:26:34.599Z,100237.75
2023-04-12T01:29:13.351Z,100228.53
2023-04-12T01:31:53.251Z,100228.63
2023-04-12T01:34:33.739Z,100229.84
2023-04-12T01:37:12.561Z,100218.97
2023-04-12T01:39:45.827Z,100223.75
2023-04-12T01:42:22.043Z,100217.00
2023-04-12T01:44:53.069Z,100213.59
2023-04-12T01:47:24.473Z,100205.97
2023-04-12T01:50:21.317Z,100209.00
2023-04-12T01:53:04.510Z,100204.63
2023-04-12T01:55:36.902Z,100205.91
2023-04-12T01:58:08.896Z,100201.66
2023-04-12T02:00:40.460Z,100205.00
2023-04-12T02:03:13.785Z,100215.16
2023-04-12T02:05:45.596Z,100211.47
2023-04-12T02:08:17.352Z,100213.06
2023-04-12T02:10:49.790Z,100203.72
2023-04-12T02:13:21.837Z,100202.91
2023-04-12T02:15:56.417Z,100193.09
2023-04-12T02:18:29.328Z,100196.78
2023-04-12T02:21:01.519Z,100195.19
2023-04-12T02:23:32.391Z,100198.56
2023-04-12T02:26:03.538Z,100190.81
2023-04-12T02:28:36.073Z,100194.16
2023-04-12T02:31:08.455Z,100207.44
2023-04-12T02:33:42.510Z,100199.84
2023-04-12T02:36:14.308Z,100204.75
2023-04-12T02:38:45.366Z,100206.44
2023-04-12T02:41:21.420Z,100198.66
2023-04-12T02:43:53.472Z,100215.66
2023-04-12T02:46:28.866Z,100215.56
2023-04-12T02:49:02.454Z,100212.22
2023-04-12T02:51:41.419Z,100203.34
2023-04-12T02:54:13.841Z,100208.19
2023-04-12T02:56:57.606Z,100214.34
2023-04-12T02:59:45.565Z,100210.84
2023-04-12T03:02:25.452Z,100218.03
2023-04-12T03:05:01.745Z,100220.81
2023-04-12T03:07:41.625Z,100218.78
2023-04-12T03:10:14.460Z,100233.31
2023-04-12T03:12:50.664Z,100218.06
2023-04-12T03:15:25.111Z,100233.78
2023-04-12T03:17:57.204Z,100232.03
2023-04-12T03:20:34.962Z,100227.50
2023-04-12T03:23:10.074Z,100228.91
2023-04-12T03:28:44.484Z,100232.88
2023-04-12T03:31:15.752Z,100231.63
2023-04-12T03:33:49.898Z,100215.44
2023-04-12T03:36:25.699Z,100229.56
2023-04-12T03:39:06.523Z,100235.09
2023-04-12T03:41:41.511Z,100236.19
2023-04-12T03:44:13.068Z,100231.38
2023-04-12T03:46:45.673Z,100224.09
2023-04-12T03:49:18.291Z,100225.28
2023-04-12T03:51:52.404Z,100224.25
2023-04-12T03:54:24.483Z,100227.13
2023-04-12T03:57:05.206Z,100225.72
2023-04-12T03:59:47.014Z,100224.22
2023-04-12T04:02:22.106Z,100224.78
2023-04-12T04:04:57.483Z,100234.34
2023-04-12T04:07:30.989Z,100225.13
2023-04-12T04:10:01.837Z,100235.44
2023-04-12T04:12:37.803Z,100233.72
2023-04-12T04:15:14.062Z,100228.88
2023-04-12T04:17:46.186Z,100242.06
2023-04-12T04:20:19.629Z,100237.59
2023-04-12T04:22:55.042Z,100233.22
2023-04-12T04:25:35.202Z,100239.00
2023-04-12T04:28:09.829Z,100244.97
2023-04-12T04:30:43.498Z,100237.25
2023-04-12T04:33:17.924Z,100238.38
2023-04-12T04:35:49.971Z,100235.81
2023-04-12T04:38:30.442Z,100245.00
2023-04-12T04:41:10.690Z,100239.47
2023-04-12T04:43:56.941Z,100242.06
2023-04-12T04:46:32.559Z,100244.34
2023-04-12T04:49:08.332Z,100246.03
2023-04-12T04:51:39.838Z,100242.19
2023-04-12T04:54:15.410Z,100250.22
2023-04-12T04:56:47.946Z,100252.22
2023-04-12T04:59:21.653Z,100253.63
2023-04-12T05:01:54.322Z,100253.06
2023-04-12T05:04:25.488Z,100257.03
2023-04-12T05:06:57.388Z,100261.28
2023-04-12T05:09:30.029Z,100258.84
2023-04-12T05:12:01.543Z,100259.56
2023-04-12T05:14:45.451Z,100265.25
2023-04-12T05:17:19.062Z,100271.03
2023-04-12T05:19:51.133Z,100278.72
2023-04-12T05:22:24.828Z,100279.16
2023-04-12T05:24:55.816Z,100288.22
2023-04-12T05:27:29.952Z,100293.44
2023-04-12T05:30:02.990Z,100300.75
2023-04-12T05:32:34.355Z,100290.94
2023-04-12T05:35:05.906Z,100308.88
2023-04-12T05:37:40.165Z,100307.25
2023-04-12T05:40:11.773Z,100320.59
2023-04-12T05:42:42.222Z,100321.78
2023-04-12T05:45:13.647Z,100324.34
2023-04-12T05:47:47.411Z,100323.31
2023-04-12T05:50:19.074Z,100335.69
2023-04-12T05:52:50.625Z,100339.03
2023-04-12T05:55:24.362Z,100341.78
2023-04-12T05:57:55.831Z,100342.38
2023-04-12T06:00:27.759Z,100347.53
2023-04-12T06:03:00.216Z,100345.31
2023-04-12T06:05:31.449Z,100351.88
2023-04-12T06:08:03.432Z,100359.56
2023-04-12T06:10:34.856Z,100353.28
2023-04-12T06:13:07.143Z,100349.59
2023-04-12T06:15:38.693Z,100361.13
2023-04-12T06:18:09.923Z,100361.41
2023-04-12T06:20:44.265Z,100365.84
2023-04-12T06:23:16.676Z,100369.88
2023-04-12T06:25:47.398Z,100372.69
2023-04-12T06:28:19.114Z,100377.75
2023-04-12T06:30:52.345Z,100381.59
2023-04-12T06:33:26.209Z,100382.84
2023-04-12T06:35:57.721Z,100380.78
2023-04-12T06:38:29.450Z,100392.22
2023-04-12T06:41:00.625Z,100391.63
2023-04-12T06:43:31.750Z,100395.78
2023-04-12T06:46:04.466Z,100390.06
2023-04-12T06:48:35.710Z,100397.78
2023-04-12T06:51:07.053Z,100397.41
2023-04-12T06:53:40.605Z,100401.47
2023-04-12T06:56:11.861Z,100406.19
2023-04-12T06:58:43.036Z,100411.03
2023-04-12T07:01:15.940Z,100409.41
2023-04-12T07:03:47.485Z,100419.16
2023-04-12T07:06:25.104Z,100418.81
2023-04-12T07:08:57.970Z,100412.06
2023-04-12T07:11:30.255Z,100401.50
2023-04-12T07:14:01.721Z,100401.81
2023-04-12T07:16:34.222Z,100413.09
2023-04-12T07:19:05.364Z,100413.94
2023-04-12T07:21:36.457Z,100419.28
2023-04-12T07:24:07.723Z,100431.34
2023-04-12T07:26:39.078Z,100431.53
2023-04-12T07:29:10.418Z,100432.03
2023-04-12T07:31:43.266Z,100435.97
2023-04-12T07:34:15.259Z,100439.50
2023-04-12T07:36:46.938Z,100436.75
2023-04-12T07:39:19.259Z,100439.06
2023-04-12T07:41:51.417Z,100438.75
2023-04-12T07:44:22.527Z,100437.72
2023-04-12T07:46:54.182Z,100437.72
2023-04-12T07:49:25.223Z,100442.28
2023-04-12T07:51:56.227Z,100450.97
2023-04-12T07:54:30.554Z,100459.44
2023-04-12T07:57:04.558Z,100467.69
2023-04-12T07:59:36.089Z,100470.78
2023-04-12T08:02:07.929Z,100470.09
2023-04-12T08:04:39.745Z,100466.53
2023-04-12T08:07:11.064Z,100472.63
2023-04-12T08:09:42.367Z,100467.81
2023-04-12T08:12:13.617Z,100474.59
2023-04-12T08:14:45.289Z,100477.88
2023-04-12T08:17:18.170Z,100482.44
2023-04-12T08:19:49.878Z,100474.63
2023-04-12T08:22:21.066Z,100492.78
2023-04-12T08:24:52.403Z,100490.88
2023-04-12T08:27:23.490Z,100493.94
2023-04-12T08:29:54.778Z,100501.75
2023-04-12T08:32:25.652Z,100499.38
2023-04-12T08:34:56.978Z,100503.47
2023-04-12T08:37:28.374Z,100507.00
2023-04-12T08:40:05.665Z,100493.72
2023-04-12T08:42:40.631Z,100506.50
2023-04-12T08:45:13.759Z,100508.91
2023-04-12T08:47:46.285Z,100515.44
2023-04-12T08:50:18.163Z,100519.22
2023-04-12T08:52:52.058Z,100523.03
2023-04-12T08:55:23.652Z,100522.75
2023-04-12T08:57:58.570Z,100525.44
2023-04-12T09:00:31.906Z,100521.63
2023-04-12T09:03:06.314Z,100529.50
2023-04-12T09:05:37.640Z,100518.88
2023-04-12T09:08:09.090Z,100526.81
2023-04-12T09:10:41.130Z,100523.88
2023-04-12T09:13:12.568Z,100530.69
2023-04-12T09:15:53.437Z,100517.66
2023-04-12T09:18:25.875Z,100525.53
2023-04-12T09:21:10.864Z,100525.28
2023-04-12T09:23:41.989Z,100527.19
2023-04-12T09:26:30.586Z,100527.19
2023-04-12T09:29:02.516Z,100530.97
2023-04-12T09:31:33.885Z,100537.75
2023-04-12T09:34:12.655Z,100543.16
2023-04-12T09:36:44.915Z,100547.25
2023-04-12T09:39:16.313Z,100555.91
2023-04-12T09:41:48.319Z,100541.00
2023-04-12T09:44:40.312Z,100555.94
2023-04-12T09:47:11.620Z,100565.38
2023-04-12T09:49:44.664Z,100555.09
2023-04-12T09:52:16.825Z,100570.00
2023-04-12T09:54:50.236Z,100573.50
2023-04-12T09:57:22.319Z,100581.91
2023-04-12T09:59:53.997Z,100568.84
2023-04-12T10:02:30.006Z,100574.63
2023-04-12T10:05:01.491Z,100582.13
2023-04-12T10:07:34.286Z,100583.16
2023-04-12T10:10:06.597Z,100588.34
2023-04-12T10:12:39.079Z,100592.22
2023-04-12T10:15:14.877Z,100591.13
2023-04-12T10:17:50.300Z,100591.94
2023-04-12T10:20:24.686Z,100586.53
2023-04-12T10:22:57.717Z,100590.31
2023-04-12T10:25:31.854Z,100599.53
2023-04-12T10:28:21.056Z,100591.94
2023-04-12T10:30:54.711Z,100597.91
2023-04-12T10:33:30.117Z,100600.91
2023-04-12T10:36:09.989Z,100600.06
2023-04-12T10:38:54.027Z,100601.16
2023-04-12T10:41:26.325Z,100595.22
2023-04-12T10:44:30.121Z,100598.19
2023-04-12T10:47:01.280Z,100594.13
2023-04-12T10:49:33.865Z,100594.13
2023-04-12T10:52:08.344Z,100597.88
2023-04-12T10:54:40.061Z,100588.06
2023-04-12T10:57:46.524Z,100589.41
2023-04-12T11:00:18.296Z,100595.38
2023-04-12T11:03:09.056Z,100595.63
2023-04-12T11:06:13.109Z,100592.38
2023-04-12T11:09:36.568Z,100588.56
2023-04-12T11:12:10.246Z,100597.47
2023-04-12T11:14:53.486Z,100605.78
2023-04-12T11:17:28.900Z,100605.13
2023-04-12T11:20:00.594Z,100614.94
2023-04-12T11:22:35.723Z,100616.81
2023-04-12T11:25:08.031Z,100596.75
2023-04-12T11:27:39.483Z,100611.09
2023-04-12T11:30:11.988Z,100611.94
2023-04-12T11:32:43.598Z,100611.16
2023-04-12T11:35:25.637Z,100612.22
2023-04-12T11:38:00.232Z,100618.69
2023-04-12T11:40:31.621Z,100613.34
2023-04-12T11:43:03.133Z,100611.19
2023-04-12T11:45:36.037Z,100607.97
2023-04-12T11:48:10.823Z,100613.88
2023-04-12T11:50:43.111Z,100606.75
2023-04-12T11:53:21.230Z,100612.97
2023-04-12T11:55:53.439Z,100612.47
2023-04-12T11:58:33.433Z,100611.59
2023-04-12T12:01:05.560Z,100618.72
2023-04-12T12:03:36.977Z,100625.44
2023-04-12T12:06:10.018Z,100627.59
2023-04-12T12:08:41.926Z,100632.63
2023-04-12T12:11:13.096Z,100639.28
2023-04-12T12:13:55.724Z,100634.59
2023-04-12T12:16:29.328Z,100635.13
2023-04-12T12:19:00.692Z,100641.66
2023-04-12T12:21:32.979Z,100641.13
2023-04-12T12:24:04.598Z,100647.34
2023-04-12T12:26:35.690Z,100648.72
2023-04-12T12:29:07.481Z,100641.44
2023-04-12T12:31:39.755Z,100657.97
2023-04-12T12:34:15.911Z,100657.59
2023-04-12T12:36:46.853Z,100665.19
2023-04-12T12:39:18.316Z,100660.81
2023-04-12T12:41:57.752Z,100661.09
2023-04-12T12:44:28.747Z,100661.03
2023-04-12T12:47:10.264Z,100668.00
2023-04-12T12:49:45.124Z,100672.56
2023-04-12T12:52:17.887Z,100672.53
2023-04-12T12:54:49.318Z,100678.72
2023-04-12T12:57:21.811Z,100671.84
2023-04-12T12:59:53.287Z,100675.28
2023-04-12T13:02:24.582Z,100685.97
2023-04-12T13:04:56.526Z,100678.06
2023-04-12T13:07:27.724Z,100680.00
2023-04-12T13:09:59.043Z,100682.72
2023-04-12T13:12:30.328Z,100681.72
2023-04-12T13:15:17.308Z,100680.88
2023-04-12T13:17:55.045Z,100683.75
2023-04-12T13:20:26.765Z,100686.28
2023-04-12T13:22:57.797Z,100688.91
2023-04-12T13:25:29.305Z,100685.41
2023-04-12T13:28:00.467Z,100686.03
2023-04-12T13:30:31.526Z,100687.03
2023-04-12T13:33:02.453Z,100698.41
2023-04-12T13:35:33.952Z,100697.75
2023-04-12T13:38:05.683Z,100697.63
2023-04-12T13:40:37.429Z,100699.25
2023-04-12T13:43:09.953Z,100706.03
2023-04-12T13:45:41.200Z,100703.94
2023-04-12T13:48:13.375Z,100710.97
2023-04-12T13:50:44.218Z,100715.31
2023-04-12T13:53:15.631Z,100709.53
2023-04-12T13:55:47.813Z,100719.31
2023-04-12T13:58:20.166Z,100716.09
2023-04-12T14:00:51.774Z,100706.69
2023-04-12T14:03:23.833Z,100719.75
2023-04-12T14:05:54.366Z,100712.41
2023-04-12T14:08:25.581Z,100717.69
2023-04-12T14:10:57.221Z,100721.97
2023-04-12T14:13:29.729Z,100717.19
2023-04-12T14:16:00.923Z,100722.19
2023-04-12T14:18:32.173Z,100720.44
2023-04-12T14:21:04.810Z,100721.06
2023-04-12T14:23:35.899Z,100723.50
2023-04-12T14:26:07.378Z,100724.97
2023-04-12T14:28:38.719Z,100728.47
2023-04-12T14:31:09.988Z,100715.31
2023-04-12T14:33:41.319Z,100730.38
2023-04-12T14:36:12.965Z,100721.66
2023-04-12T14:38:44.282Z,100722.31
2023-04-12T14:41:15.456Z,100713.84
2023-04-12T14:43:48.013Z,100725.97
2023-04-12T14:46:19.663Z,100716.78
2023-04-12T14:48:51.676Z,100718.94
2023-04-12T14:51:23.138Z,100728.50
2023-04-12T14:53:54.592Z,100725.88
2023-04-12T14:56:29.649Z,100723.34
2023-04-12T14:59:02.582Z,100725.25
2023-04-12T15:01:33.374Z,100717.41
2023-04-12T15:04:05.712Z,100720.13
2023-04-12T15:06:43.756Z,100725.13
2023-04-12T15:09:17.207Z,100719.13
2023-04-12T15:11:56.362Z,100725.09
2023-04-12T15:14:27.645Z,100726.09
2023-04-12T15:16:59.422Z,100735.78
2023-04-12T15:19:30.573Z,100721.72
2023-04-12T15:22:02.180Z,100722.91
2023-04-12T15:24:32.857Z,100726.47
2023-04-12T15:27:05.901Z,100729.69
2023-04-12T15:29:37.881Z,100735.66
2023-04-12T15:32:10.337Z,100737.41
2023-04-12T15:34:41.444Z,100742.19
2023-04-12T15:37:16.162Z,100742.22
2023-04-12T15:39:47.599Z,100742.75
2023-04-12T15:42:19.369Z,100735.78
2023-04-12T15:44:50.171Z,100738.72
2023-04-12T15:47:21.143Z,100738.97
2023-04-12T15:49:55.963Z,100743.81
2023-04-12T15:52:27.339Z,100751.47
2023-04-12T15:54:58.557Z,100757.44
2023-04-12T15:57:29.675Z,100757.81
2023-04-12T16:00:01.389Z,100764.50
2023-04-12T16:02:35.726Z,100773.38
2023-04-12T16:05:06.910Z,100768.50
2023-04-12T16:07:41.865Z,100766.53
2023-04-12T16:10:14.101Z,100773.97
2023-04-12T16:12:46.239Z,100778.38
2023-04-12T16:15:22.355Z,100782.13
2023-04-12T16:17:55.850Z,100774.09
2023-04-12T16:20:27.449Z,100780.38
2023-04-12T16:23:00.259Z,100783.31
2023-04-12T16:25:31.979Z,100795.94
2023-04-12T16:28:06.744Z,100782.44
2023-04-12T16:30:38.220Z,100794.22
2023-04-12T16:33:09.494Z,100790.97
2023-04-12T16:35:40.785Z,100790.75
2023-04-12T16:38:15.844Z,100789.66
2023-04-12T16:40:49.188Z,100798.91
2023-04-12T16:43:20.469Z,100800.03
2023-04-12T16:45:51.848Z,100802.78
2023-04-12T16:48:24.094Z,100808.94
2023-04-12T16:50:55.663Z,100803.84
2023-04-12T16:53:26.566Z,100813.81
2023-04-12T16:55:58.063Z,100814.34
2023-04-12T16:58:30.301Z,100816.28
2023-04-12T17:01:01.640Z,100818.44
2023-04-12T17:03:33.182Z,100820.69
2023-04-12T17:06:05.873Z,100829.56
2023-04-12T17:08:37.122Z,100831.13
2023-04-12T17:11:09.454Z,100838.81
2023-04-12T17:13:40.831Z,100841.25
2023-04-12T17:16:12.969Z,100832.63
2023-04-12T17:18:44.981Z,100838.03
2023-04-12T17:21:19.818Z,100835.84
2023-04-12T17:23:51.702Z,100837.72
2023-04-12T17:26:26.471Z,100843.00
2023-04-12T17:28:58.213Z,100847.31
2023-04-12T17:31:29.223Z,100842.00
2023-04-12T17:34:02.588Z,100845.16
2023-04-12T17:36:35.208Z,100852.13
2023-04-12T17:39:06.607Z,100857.34
2023-04-12T17:41:38.058Z,100858.59
2023-04-12T17:44:09.444Z,100873.47
2023-04-12T17:46:40.882Z,100859.72
2023-04-12T17:49:11.820Z,100878.25
2023-04-12T17:51:43.536Z,100884.53
2023-04-12T17:54:14.737Z,100883.75
2023-04-12T17:56:46.368Z,100882.84
2023-04-12T17:59:17.502Z,100891.94
2023-04-12T18:01:48.994Z,100896.19
2023-04-12T18:04:20.377Z,100898.63
2023-04-12T18:06:51.810Z,100904.06
2023-04-12T18:09:23.228Z,100908.59
2023-04-12T18:11:56.279Z,100919.31
2023-04-12T18:14:28.133Z,100909.44
2023-04-12T18:17:01.211Z,100920.34
2023-04-12T18:19:33.457Z,100928.00
2023-04-12T18:22:04.720Z,100923.97
2023-04-12T18:24:37.287Z,100928.22
2023-04-12T18:27:09.655Z,100924.53
2023-04-12T18:29:40.588Z,100928.06
2023-04-12T18:32:11.806Z,100927.28
2023-04-12T18:34:43.214Z,100933.00
2023-04-12T18:37:14.685Z,100932.78
2023-04-12T18:39:47.434Z,100936.41
2023-04-12T18:42:18.998Z,100942.69
2023-04-12T18:44:50.317Z,100934.34
2023-04-12T18:47:21.581Z,100944.38
2023-04-12T18:49:52.653Z,100943.31
2023-04-12T18:52:24.399Z,100942.13
2023-04-12T18:54:56.219Z,100936.03
2023-04-12T18:57:27.538Z,100934.81
2023-04-12T18:59:59.082Z,100938.03
2023-04-12T19:02:30.683Z,100943.00
2023-04-12T19:05:02.200Z,100945.38
2023-04-12T19:07:33.605Z,100947.84
2023-04-12T19:10:07.155Z,100947.41
2023-04-12T19:12:38.448Z,100956.59
2023-04-12T19:15:10.368Z,100958.41
2023-04-12T19:17:41.790Z,100981.44
2023-04-12T19:20:13.124Z,100978.34
2023-04-12T19:22:44.841Z,100963.53
2023-04-12T19:25:18.930Z,100985.47
2023-04-12T19:27:51.150Z,100989.56
2023-04-12T19:30:22.694Z,100980.22
2023-04-12T19:32:53.983Z,100992.69
2023-04-12T19:35:25.527Z,100991.00
2023-04-12T19:37:56.626Z,100995.00
2023-04-12T19:40:29.882Z,101006.63
2023-04-12T19:43:02.196Z,101019.75
2023-04-12T19:45:33.784Z,101014.81
2023-04-12T19:48:05.166Z,101009.53
2023-04-12T19:50:37.505Z,101010.31
2023-04-12T19:53:09.687Z,101022.00
2023-04-12T19:55:43.491Z,101017.66
2023-04-12T19:58:15.137Z,101016.41
2023-04-12T20:00:46.711Z,101034.06
2023-04-12T20:03:18.230Z,101039.84
2023-04-12T20:05:49.473Z,101048.47
2023-04-12T20:08:20.600Z,101064.72
2023-04-12T20:10:52.275Z,101066.16
2023-04-12T20:13:26.494Z,101074.16
2023-04-12T20:15:57.746Z,101077.03
2023-04-12T20:18:29.355Z,101090.50
2023-04-12T20:21:00.583Z,101097.22
2023-04-12T20:23:33.541Z,101094.66
2023-04-12T20:26:05.363Z,101097.63
2023-04-12T20:28:36.112Z,101106.31
2023-04-12T20:31:07.808Z,101111.66
2023-04-12T20:33:39.021Z,101107.25
2023-04-12T20:36:12.094Z,101110.09
2023-04-12T20:38:47.353Z,101111.78
2023-04-12T20:41:19.060Z,101097.56
2023-04-12T20:43:50.800Z,101103.41
2023-04-12T20:46:27.064Z,101099.22
2023-04-12T20:48:59.731Z,101098.38
2023-04-12T20:51:31.057Z,101098.69
2023-04-12T20:54:03.700Z,101098.63
2023-04-12T20:56:35.165Z,101103.47
2023-04-12T20:59:06.412Z,101104.03
2023-04-12T21:01:37.854Z,101105.28
2023-04-12T21:04:09.927Z,101108.63
2023-04-12T21:06:41.020Z,101109.88
2023-04-12T21:09:12.086Z,101107.25
2023-04-12T21:11:44.785Z,101116.53
2023-04-12T21:14:18.639Z,101113.31
2023-04-12T21:16:52.611Z,101117.16
2023-04-12T21:19:24.484Z,101122.53
2023-04-12T21:21:56.035Z,101120.63
2023-04-12T21:24:27.713Z,101127.66
2023-04-12T21:26:59.389Z,101125.84
2023-04-12T21:29:33.112Z,101131.81
2023-04-12T21:32:07.145Z,101135.09
2023-04-12T21:34:38.797Z,101136.97
2023-04-12T21:37:10.562Z,101136.63
2023-04-12T21:39:44.869Z,101131.97
2023-04-12T21:42:15.762Z,101133.22
2023-04-12T21:44:46.820Z,101133.00
2023-04-12T21:47:18.110Z,101136.06
2023-04-12T21:49:49.499Z,101139.56
2023-04-12T21:52:21.089Z,101146.50
2023-04-12T21:54:53.771Z,101143.78
2023-04-12T21:57:25.381Z,101134.38
2023-04-12T21:59:56.768Z,101133.56
2023-04-12T22:02:28.772Z,101123.78
2023-04-12T22:04:59.967Z,101130.56
2023-04-12T22:07:31.113Z,101129.25
2023-04-12T22:10:03.859Z,101124.59
2023-04-12T22:12:35.440Z,101116.19
2023-04-12T22:15:08.007Z,101118.31
2023-04-12T22:17:40.128Z,101119.34
2023-04-12T22:20:14.232Z,101122.00
2023-04-12T22:22:46.550Z,101127.00
2023-04-12T22:25:24.256Z,101119.84
2023-04-12T22:27:59.187Z,101121.69
2023-04-12T22:30:32.103Z,101110.47
2023-04-12T22:33:03.497Z,101122.63
2023-04-12T22:35:38.768Z,101126.78
2023-04-12T22:38:10.766Z,101125.00
2023-04-12T22:40:42.098Z,101126.47
2023-04-12T22:43:19.515Z,101128.31
2023-04-12T22:45:51.370Z,101131.28
2023-04-12T22:48:26.448Z,101121.63
2023-04-12T22:50:57.778Z,101136.63
2023-04-12T22:53:29.582Z,101130.69
2023-04-12T22:56:01.919Z,101130.56
2023-04-12T22:58:33.310Z,101124.84
2023-04-12T23:01:05.642Z,101119.13
2023-04-12T23:03:39.617Z,101117.34
2023-04-12T23:06:14.157Z,101110.38
2023-04-12T23:08:45.968Z,101120.50
2023-04-12T23:11:17.150Z,101105.22
2023-04-12T23:13:48.392Z,101105.56
2023-04-12T23:16:19.649Z,101118.78
2023-04-12T23:18:51.341Z,101115.13
2023-04-12T23:21:23.126Z,101128.59
2023-04-12T23:23:54.148Z,101127.63
2023-04-12T23:26:26.235Z,101116.81
2023-04-12T23:28:57.463Z,101119.25
2023-04-12T23:31:28.445Z,101115.97
2023-04-12T23:34:00.010Z,101111.22
2023-04-12T23:36:30.563Z,101118.53
2023-04-12T23:39:06.827Z,101113.09
2023-04-12T23:41:38.256Z,101126.50
2023-04-12T23:44:09.105Z,101128.13
2023-04-12T23:46:40.514Z,101122.13
2023-04-12T23:49:11.609Z,101126.81
2023-04-12T23:51:42.961Z,101123.19
2023-04-12T23:54:14.212Z,101127.81
2023-04-12T23:56:46.240Z,101116.81
2023-04-12T23:59:17.708Z,101128.28
